createdAt,value
2017-10-07T00:01:28.328Z,96.30
2017-10-07T00:03:55.356Z,96.10
2017-10-07T00:06:22.400Z,95.90
2017-10-07T00:08:48.724Z,95.80
2017-10-07T00:11:16.577Z,95.80
2017-10-07T00:13:42.876Z,95.80
2017-10-07T00:16:09.194Z,95.90
2017-10-07T00:18:35.610Z,95.90
2017-10-07T00:21:01.965Z,95.20
2017-10-07T00:23:28.521Z,95.30
2017-10-07T00:25:54.851Z,95.30
2017-10-07T00:28:21.130Z,95.50
2017-10-07T00:30:48.160Z,95.60
2017-10-07T00:33:14.483Z,95.50
2017-10-07T00:35:40.795Z,95.70
2017-10-07T00:38:07.096Z,95.70
2017-10-07T00:40:33.419Z,96.00
2017-10-07T00:42:59.830Z,96.20
2017-10-07T00:45:26.888Z,96.00
2017-10-07T00:47:53.172Z,96.00
2017-10-07T00:50:19.703Z,96.00
2017-10-07T00:52:46.012Z,95.90
2017-10-07T00:55:12.294Z,96.10
2017-10-07T00:57:39.362Z,96.90
2017-10-07T01:00:05.661Z,96.60
2017-10-07T01:02:32.780Z,97.20
2017-10-07T01:04:59.168Z,97.20
2017-10-07T01:07:26.211Z,97.30
2017-10-07T01:09:53.494Z,97.50
2017-10-07T01:12:19.828Z,97.40
2017-10-07T01:14:46.159Z,97.70
2017-10-07T01:17:12.516Z,98.10
2017-10-07T01:19:38.811Z,98.20
2017-10-07T01:22:05.125Z,98.20
2017-10-07T01:24:31.506Z,98.30
2017-10-07T01:26:57.841Z,98.20
2017-10-07T01:29:24.154Z,98.00
2017-10-07T01:31:50.443Z,98.20
2017-10-07T01:34:16.752Z,98.20
2017-10-07T01:36:43.860Z,98.20
2017-10-07T01:39:10.203Z,98.20
2017-10-07T01:41:36.503Z,98.60
2017-10-07T01:44:02.821Z,98.40
2017-10-07T01:46:29.111Z,98.40
2017-10-07T01:48:55.424Z,98.40
2017-10-07T01:51:21.732Z,98.40
2017-10-07T01:53:48.158Z,98.30
2017-10-07T01:56:14.439Z,97.30
2017-10-07T01:58:41.511Z,97.80
2017-10-07T02:01:07.814Z,97.80
2017-10-07T02:03:34.905Z,98.10
2017-10-07T02:06:01.195Z,98.00
2017-10-07T02:08:28.925Z,98.20
2017-10-07T02:10:55.216Z,98.10
2017-10-07T02:13:21.520Z,98.00
2017-10-07T02:15:48.580Z,98.30
2017-10-07T02:18:15.596Z,98.10
2017-10-07T02:20:41.921Z,98.10
2017-10-07T02:23:08.215Z,97.80
2017-10-07T02:25:34.504Z,97.60
2017-10-07T02:28:01.693Z,97.80
2017-10-07T02:30:28.032Z,97.70
2017-10-07T02:32:54.396Z,97.40
2017-10-07T02:35:20.664Z,97.60
2017-10-07T02:37:47.780Z,97.80
2017-10-07T02:40:14.097Z,97.80
2017-10-07T02:42:40.404Z,98.10
2017-10-07T02:45:06.737Z,98.40
2017-10-07T02:47:33.026Z,99.00
2017-10-07T02:50:00.084Z,99.90
2017-10-07T02:52:26.399Z,99.90
2017-10-07T02:54:53.444Z,99.90
2017-10-07T02:57:20.480Z,99.90
2017-10-07T02:59:46.772Z,99.90
2017-10-07T03:02:13.096Z,99.90
2017-10-07T03:04:39.397Z,99.90
2017-10-07T03:07:05.704Z,99.90
2017-10-07T03:09:32.765Z,99.90
2017-10-07T03:11:59.112Z,99.90
2017-10-07T03:14:25.404Z,99.90
2017-10-07T03:16:51.804Z,99.90
2017-10-07T03:19:18.106Z,99.90
2017-10-07T03:21:44.432Z,99.90
2017-10-07T03:24:10.748Z,99.90
2017-10-07T03:26:37.810Z,99.90
2017-10-07T03:29:04.178Z,99.90
2017-10-07T03:31:30.444Z,99.90
2017-10-07T03:33:57.741Z,99.90
2017-10-07T03:36:24.048Z,99.90
2017-10-07T03:38:50.347Z,99.90
2017-10-07T03:41:16.619Z,99.90
2017-10-07T03:43:42.896Z,99.90
2017-10-07T03:46:09.196Z,99.90
2017-10-07T03:48:35.515Z,99.90
2017-10-07T03:51:01.856Z,99.90
2017-10-07T03:53:28.124Z,99.90
2017-10-07T03:55:54.412Z,99.90
2017-10-07T03:58:20.704Z,99.90
2017-10-07T04:00:47.760Z,99.90
2017-10-07T04:03:14.163Z,99.90
2017-10-07T04:05:40.500Z,99.90
2017-10-07T04:08:07.543Z,99.90
2017-10-07T04:10:34.588Z,99.90
2017-10-07T04:13:01.663Z,99.90
2017-10-07T04:15:27.984Z,99.90
2017-10-07T04:17:55.051Z,99.90
2017-10-07T04:20:21.568Z,99.90
2017-10-07T04:22:48.639Z,99.40
2017-10-07T04:25:14.932Z,99.40
2017-10-07T04:27:41.269Z,99.40
2017-10-07T04:30:08.384Z,99.90
2017-10-07T04:32:34.692Z,99.90
2017-10-07T04:35:00.996Z,99.90
2017-10-07T04:37:27.269Z,99.90
2017-10-07T04:39:53.612Z,99.90
2017-10-07T04:42:19.932Z,99.90
2017-10-07T04:44:46.404Z,99.90
2017-10-07T04:47:13.497Z,99.90
2017-10-07T04:49:39.780Z,99.90
2017-10-07T04:52:06.824Z,99.90
2017-10-07T04:54:34.003Z,99.90
2017-10-07T04:57:00.328Z,99.90
2017-10-07T04:59:26.635Z,99.90
2017-10-07T05:01:53.669Z,99.90
2017-10-07T05:04:19.984Z,99.90
2017-10-07T05:06:46.276Z,99.90
2017-10-07T05:09:12.571Z,99.90
2017-10-07T05:11:39.604Z,99.90
2017-10-07T05:14:05.864Z,99.90
2017-10-07T05:16:32.167Z,99.90
2017-10-07T05:18:59.228Z,99.90
2017-10-07T05:21:26.289Z,99.90
2017-10-07T05:23:52.571Z,99.90
2017-10-07T05:26:18.950Z,99.90
2017-10-07T05:28:45.252Z,99.90
2017-10-07T05:31:12.280Z,99.90
2017-10-07T05:33:38.631Z,99.90
2017-10-07T05:36:13.246Z,99.90
2017-10-07T05:38:39.572Z,99.90
2017-10-07T05:41:06.644Z,99.90
2017-10-07T05:43:33.687Z,99.90
2017-10-07T05:46:00.744Z,99.90
2017-10-07T05:48:27.812Z,99.90
2017-10-07T05:50:54.100Z,99.90
2017-10-07T05:53:21.143Z,99.90
2017-10-07T05:55:47.443Z,99.90
2017-10-07T05:58:13.768Z,99.90
2017-10-07T06:00:40.067Z,99.90
2017-10-07T06:03:06.378Z,99.90
2017-10-07T06:05:33.498Z,99.90
2017-10-07T06:07:59.784Z,99.90
2017-10-07T06:10:26.402Z,99.90
2017-10-07T06:12:52.737Z,99.90
2017-10-07T06:15:19.057Z,99.90
2017-10-07T06:17:46.203Z,99.90
2017-10-07T06:20:13.248Z,99.90
2017-10-07T06:22:40.305Z,99.90
2017-10-07T06:25:07.348Z,99.90
2017-10-07T06:27:34.439Z,99.10
2017-10-07T06:30:00.756Z,99.10
2017-10-07T06:32:27.285Z,98.70
2017-10-07T06:34:53.675Z,98.60
2017-10-07T06:37:20.020Z,98.10
2017-10-07T06:39:47.045Z,96.90
2017-10-07T06:42:13.367Z,96.90
2017-10-07T06:44:39.697Z,96.60
2017-10-07T06:47:06.172Z,96.60
2017-10-07T06:49:33.204Z,96.40
2017-10-07T06:52:00.273Z,95.00
2017-10-07T06:54:26.605Z,95.00
2017-10-07T06:56:55.168Z,94.40
2017-10-07T06:59:22.244Z,94.60
2017-10-07T07:01:48.581Z,94.50
2017-10-07T07:04:14.899Z,93.70
2017-10-07T07:06:41.964Z,91.50
2017-10-07T07:09:08.254Z,91.50
2017-10-07T07:11:35.303Z,88.50
2017-10-07T07:14:02.543Z,87.30
2017-10-07T07:16:28.911Z,87.20
2017-10-07T07:18:55.231Z,83.90
2017-10-07T07:21:21.550Z,81.50
2017-10-07T07:23:48.604Z,74.60
2017-10-07T07:26:14.929Z,74.60
2017-10-07T07:28:42.160Z,63.40
2017-10-07T07:31:09.198Z,59.00
2017-10-07T07:33:35.563Z,58.90
2017-10-07T07:36:01.927Z,56.80
2017-10-07T07:38:28.289Z,53.30
2017-10-07T07:40:55.384Z,46.20
2017-10-07T07:43:21.759Z,45.80
2017-10-07T07:45:48.092Z,40.00
2017-10-07T07:48:14.405Z,35.10
2017-10-07T07:50:47.588Z,35.30
2017-10-07T07:53:13.933Z,35.00
2017-10-07T07:55:40.311Z,36.00
2017-10-07T07:58:07.408Z,34.10
2017-10-07T08:00:33.734Z,34.00
2017-10-07T08:03:00.051Z,34.90
2017-10-07T08:05:26.395Z,36.90
2017-10-07T08:07:52.709Z,39.40
2017-10-07T08:10:19.021Z,41.80
2017-10-07T08:12:45.341Z,43.40
2017-10-07T08:15:12.421Z,48.50
2017-10-07T08:17:38.744Z,48.50
2017-10-07T08:20:05.060Z,50.90
2017-10-07T08:22:31.355Z,52.90
2017-10-07T08:24:57.701Z,55.00
2017-10-07T08:29:58.547Z,59.00
2017-10-07T08:32:26.377Z,59.20
2017-10-07T08:34:52.700Z,59.20
2017-10-07T08:37:19.042Z,59.60
2017-10-07T08:39:45.364Z,59.70
2017-10-07T08:42:11.731Z,59.90
2017-10-07T08:44:38.013Z,62.20
2017-10-07T08:47:04.325Z,63.20
2017-10-07T08:49:30.683Z,64.30
2017-10-07T08:51:56.999Z,64.00
2017-10-07T08:54:23.303Z,65.50
2017-10-07T08:56:50.378Z,67.60
2017-10-07T08:59:16.689Z,67.50
2017-10-07T09:01:43.768Z,67.70
2017-10-07T09:04:10.299Z,67.90
2017-10-07T09:06:36.597Z,68.00
2017-10-07T09:09:02.876Z,68.50
2017-10-07T09:11:29.256Z,68.20
2017-10-07T09:13:56.361Z,68.00
2017-10-07T09:16:22.672Z,68.10
2017-10-07T09:18:48.985Z,68.30
2017-10-07T09:21:15.284Z,67.20
2017-10-07T09:23:42.574Z,67.20
2017-10-07T09:26:08.971Z,67.10
2017-10-07T09:28:36.182Z,68.70
2017-10-07T09:31:02.548Z,68.60
2017-10-07T09:33:28.935Z,66.80
2017-10-07T09:35:55.219Z,66.30
2017-10-07T09:38:21.526Z,64.90
2017-10-07T09:40:48.597Z,63.40
2017-10-07T09:43:14.902Z,63.40
2017-10-07T09:45:41.964Z,63.10
2017-10-07T09:48:09.032Z,63.70
2017-10-07T09:50:35.346Z,63.60
2017-10-07T09:53:02.415Z,64.50
2017-10-07T09:55:28.809Z,63.70
2017-10-07T09:57:55.844Z,64.40
2017-10-07T10:00:22.151Z,64.20
2017-10-07T10:02:48.461Z,64.70
2017-10-07T10:05:15.363Z,65.40
2017-10-07T10:07:41.744Z,67.40
2017-10-07T10:10:08.025Z,68.00
2017-10-07T10:12:34.331Z,69.10
2017-10-07T10:15:00.704Z,70.80
2017-10-07T10:17:27.890Z,71.40
2017-10-07T10:19:54.205Z,71.40
2017-10-07T10:22:20.504Z,72.70
2017-10-07T10:24:47.589Z,74.80
2017-10-07T10:27:13.895Z,74.70
2017-10-07T10:29:40.945Z,76.30
2017-10-07T10:32:07.261Z,76.20
2017-10-07T10:34:34.544Z,76.20
2017-10-07T10:37:00.897Z,76.10
2017-10-07T10:39:28.065Z,75.20
2017-10-07T10:41:54.387Z,75.80
2017-10-07T10:44:20.697Z,75.60
2017-10-07T10:46:47.016Z,76.40
2017-10-07T10:49:13.356Z,75.00
2017-10-07T10:51:39.690Z,74.40
2017-10-07T10:54:06.031Z,74.40
2017-10-07T10:56:32.382Z,72.30
2017-10-07T10:58:58.741Z,71.40
2017-10-07T11:01:25.788Z,71.20
2017-10-07T11:03:52.888Z,71.10
2017-10-07T11:06:19.241Z,71.00
2017-10-07T11:08:45.617Z,69.80
2017-10-07T11:11:11.958Z,66.70
2017-10-07T11:13:38.309Z,65.10
2017-10-07T11:16:04.618Z,65.40
2017-10-07T11:18:30.945Z,62.30
2017-10-07T11:20:57.436Z,60.90
2017-10-07T11:23:23.882Z,59.60
2017-10-07T11:25:50.232Z,57.00
2017-10-07T11:28:16.558Z,56.50
2017-10-07T11:30:42.907Z,57.90
2017-10-07T11:33:10.175Z,55.10
2017-10-07T11:35:36.496Z,54.80
2017-10-07T11:38:02.879Z,55.70
2017-10-07T11:40:29.293Z,54.00
2017-10-07T11:42:55.690Z,53.60
2017-10-07T11:45:22.151Z,53.50
2017-10-07T11:47:48.649Z,54.90
2017-10-07T11:50:15.134Z,55.90
2017-10-07T11:52:41.634Z,55.10
2017-10-07T11:55:08.046Z,55.40
2017-10-07T11:57:34.458Z,54.40
2017-10-07T12:00:01.751Z,57.20
2017-10-07T12:02:28.179Z,57.10
2017-10-07T12:04:54.499Z,56.90
2017-10-07T12:07:20.850Z,56.90
2017-10-07T12:09:47.235Z,57.20
2017-10-07T12:12:13.605Z,55.80
2017-10-07T12:14:39.995Z,54.70
2017-10-07T12:17:06.412Z,55.90
2017-10-07T12:19:34.272Z,58.00
2017-10-07T12:22:01.435Z,56.30
2017-10-07T12:24:28.562Z,56.60
2017-10-07T12:26:54.952Z,56.50
2017-10-07T12:29:21.376Z,56.80
2017-10-07T12:31:47.748Z,57.60
2017-10-07T12:34:14.261Z,56.90
2017-10-07T12:36:40.593Z,56.50
2017-10-07T12:39:06.951Z,56.10
2017-10-07T12:41:33.338Z,56.80
2017-10-07T12:44:00.273Z,56.10
2017-10-07T12:46:26.651Z,57.70
2017-10-07T12:48:52.981Z,57.90
2017-10-07T12:51:19.331Z,58.30
2017-10-07T12:53:45.808Z,58.30
2017-10-07T12:56:12.139Z,59.00
2017-10-07T12:58:39.145Z,59.60
2017-10-07T13:01:06.272Z,59.40
2017-10-07T13:03:32.652Z,59.30
2017-10-07T13:05:59.736Z,59.60
2017-10-07T13:08:26.049Z,59.50
2017-10-07T13:10:56.692Z,59.50
2017-10-07T13:13:23.193Z,59.50
2017-10-07T13:15:50.397Z,60.10
2017-10-07T13:18:16.774Z,60.00
2017-10-07T13:20:44.031Z,60.30
2017-10-07T13:23:10.398Z,60.20
2017-10-07T13:25:36.711Z,61.40
2017-10-07T13:28:03.686Z,62.80
2017-10-07T13:30:30.234Z,61.90
2017-10-07T13:32:56.542Z,62.40
2017-10-07T13:35:22.917Z,63.10
2017-10-07T13:37:50.074Z,64.10
2017-10-07T13:40:17.469Z,63.00
2017-10-07T13:42:43.792Z,63.00
2017-10-07T13:45:10.248Z,62.90
2017-10-07T13:47:36.598Z,62.30
2017-10-07T13:50:02.963Z,63.70
2017-10-07T13:52:29.305Z,64.30
2017-10-07T13:54:56.437Z,67.00
2017-10-07T13:57:24.216Z,67.60
2017-10-07T13:59:50.570Z,67.50
2017-10-07T14:02:16.862Z,66.90
2017-10-07T14:04:43.971Z,68.00
2017-10-07T14:07:10.299Z,68.00
2017-10-07T14:09:36.618Z,68.40
2017-10-07T14:12:02.956Z,69.20
2017-10-07T14:14:29.280Z,70.30
2017-10-07T14:16:55.652Z,70.30
2017-10-07T14:19:22.786Z,71.10
2017-10-07T14:21:49.093Z,70.60
2017-10-07T14:24:15.417Z,70.50
2017-10-07T14:26:41.735Z,69.40
2017-10-07T14:29:08.044Z,68.50
2017-10-07T14:31:35.131Z,70.00
2017-10-07T14:34:01.511Z,69.90
2017-10-07T14:36:28.549Z,69.00
2017-10-07T14:38:54.842Z,69.00
2017-10-07T14:41:21.351Z,70.40
2017-10-07T14:43:47.675Z,71.00
2017-10-07T14:46:13.998Z,71.10
2017-10-07T14:48:40.318Z,72.10
2017-10-07T14:51:07.493Z,71.40
2017-10-07T14:53:33.898Z,71.30
2017-10-07T14:56:00.958Z,72.20
2017-10-07T14:58:27.348Z,72.10
2017-10-07T15:00:54.391Z,72.80
2017-10-07T15:03:20.701Z,72.80
2017-10-07T15:05:47.036Z,73.40
2017-10-07T15:08:13.448Z,73.90
2017-10-07T15:10:39.764Z,74.60
2017-10-07T15:13:06.166Z,75.10
2017-10-07T15:15:32.480Z,74.70
2017-10-07T15:17:59.557Z,73.80
2017-10-07T15:20:26.778Z,74.10
2017-10-07T15:22:53.168Z,73.50
2017-10-07T15:25:19.552Z,74.30
2017-10-07T15:27:45.920Z,75.50
2017-10-07T15:30:12.313Z,74.90
2017-10-07T15:32:38.698Z,75.60
2017-10-07T15:35:05.029Z,76.80
2017-10-07T15:37:31.369Z,77.10
2017-10-07T15:39:57.765Z,77.20
2017-10-07T15:42:24.832Z,76.60
2017-10-07T15:44:51.136Z,76.50
2017-10-07T15:47:18.220Z,76.60
2017-10-07T15:49:44.518Z,76.50
2017-10-07T15:52:11.705Z,77.10
2017-10-07T15:54:38.051Z,77.10
2017-10-07T15:57:04.364Z,77.40
2017-10-07T15:59:30.740Z,76.30
2017-10-07T16:01:57.055Z,76.10
2017-10-07T16:04:23.400Z,76.60
2017-10-07T16:06:49.774Z,77.80
2017-10-07T16:09:16.105Z,78.00
2017-10-07T16:11:42.460Z,77.60
2017-10-07T16:14:08.788Z,76.60
2017-10-07T16:16:35.169Z,76.20
2017-10-07T16:19:02.249Z,77.80
2017-10-07T16:21:28.576Z,77.10
2017-10-07T16:23:54.900Z,76.60
2017-10-07T16:26:21.215Z,77.30
2017-10-07T16:28:49.313Z,77.90
2017-10-07T16:31:15.658Z,77.90
2017-10-07T16:33:42.251Z,77.40
2017-10-07T16:36:09.343Z,77.80
2017-10-07T16:38:35.761Z,77.80
2017-10-07T16:41:02.067Z,77.20
2017-10-07T16:43:29.126Z,78.00
2017-10-07T16:45:55.678Z,78.00
2017-10-07T16:48:22.012Z,78.70
2017-10-07T16:50:48.357Z,78.00
2017-10-07T16:53:14.687Z,78.00
2017-10-07T16:55:41.013Z,77.20
2017-10-07T16:58:07.343Z,77.60
2017-10-07T17:00:33.656Z,78.00
2017-10-07T17:03:00.004Z,78.70
2017-10-07T17:05:26.368Z,79.10
2017-10-07T17:07:52.683Z,79.90
2017-10-07T17:10:19.015Z,80.70
2017-10-07T17:12:45.368Z,81.10
2017-10-07T17:15:12.437Z,80.50
2017-10-07T17:17:38.727Z,80.20
2017-10-07T17:20:05.089Z,80.30
2017-10-07T17:22:32.155Z,82.60
2017-10-07T17:24:58.476Z,82.50
2017-10-07T17:27:24.828Z,84.40
2017-10-07T17:29:51.171Z,84.80
2017-10-07T17:32:17.580Z,86.60
2017-10-07T17:34:44.106Z,85.80
2017-10-07T17:37:10.472Z,86.50
2017-10-07T17:39:36.810Z,87.50
2017-10-07T17:42:03.180Z,86.50
2017-10-07T17:44:30.281Z,87.40
2017-10-07T17:46:56.621Z,87.40
2017-10-07T17:49:22.995Z,87.80
2017-10-07T17:51:50.102Z,88.50
2017-10-07T17:54:16.489Z,88.50
2017-10-07T17:56:42.869Z,88.80
2017-10-07T17:59:09.207Z,88.90
2017-10-07T18:01:36.361Z,89.20
2017-10-07T18:04:02.701Z,89.10
2017-10-07T18:06:29.081Z,89.30
2017-10-07T18:08:55.407Z,89.20
2017-10-07T18:11:21.993Z,89.50
2017-10-07T18:13:49.311Z,88.80
2017-10-07T18:16:17.378Z,87.90
2017-10-07T18:18:44.550Z,88.20
2017-10-07T18:21:10.935Z,88.20
2017-10-07T18:23:37.323Z,87.40
2017-10-07T18:26:03.847Z,87.40
2017-10-07T18:28:30.289Z,86.60
2017-10-07T18:30:56.668Z,87.10
2017-10-07T18:33:23.141Z,86.90
2017-10-07T18:35:49.572Z,84.50
2017-10-07T18:38:15.904Z,84.90
2017-10-07T18:40:42.293Z,84.30
2017-10-07T18:43:09.437Z,85.00
2017-10-07T18:45:36.561Z,84.70
2017-10-07T18:48:02.976Z,84.60
2017-10-07T18:50:29.308Z,84.40
2017-10-07T18:52:55.681Z,84.40
2017-10-07T18:55:22.755Z,81.80
2017-10-07T18:57:49.282Z,81.80
2017-10-07T19:00:15.612Z,82.80
2017-10-07T19:02:41.919Z,82.30
2017-10-07T19:05:08.967Z,81.80
2017-10-07T19:07:36.044Z,81.70
2017-10-07T19:10:02.380Z,81.10
2017-10-07T19:12:28.709Z,81.00
2017-10-07T19:14:55.041Z,81.60
2017-10-07T19:17:21.378Z,82.80
2017-10-07T19:19:47.732Z,82.30
2017-10-07T19:22:14.276Z,83.10
2017-10-07T19:24:40.642Z,82.70
2017-10-07T19:27:06.971Z,83.60
2017-10-07T19:29:34.089Z,84.80
2017-10-07T19:32:00.548Z,84.80
2017-10-07T19:34:27.582Z,82.70
2017-10-07T19:36:54.714Z,84.00
2017-10-07T19:39:21.097Z,83.30
2017-10-07T19:41:47.517Z,82.70
2017-10-07T19:44:13.907Z,81.80
2017-10-07T19:46:40.294Z,82.30
2017-10-07T19:49:06.627Z,82.20
2017-10-07T19:51:33.016Z,82.80
2017-10-07T19:54:00.123Z,84.40
2017-10-07T19:56:26.474Z,84.30
2017-10-07T19:58:52.862Z,82.70
2017-10-07T20:01:19.240Z,83.70
2017-10-07T20:03:45.586Z,84.50
2017-10-07T20:06:12.081Z,84.50
2017-10-07T20:08:38.481Z,85.00
2017-10-07T20:11:04.791Z,85.20
2017-10-07T20:13:31.847Z,86.70
2017-10-07T20:15:59.057Z,86.80
2017-10-07T20:18:25.352Z,86.70
2017-10-07T20:20:51.786Z,87.00
2017-10-07T20:23:18.138Z,86.50
2017-10-07T20:25:44.523Z,87.00
2017-10-07T20:28:11.641Z,87.40
2017-10-07T20:30:37.997Z,87.40
2017-10-07T20:33:05.090Z,89.20
2017-10-07T20:35:31.397Z,89.10
2017-10-07T20:37:57.767Z,89.60
2017-10-07T20:40:24.069Z,88.80
2017-10-07T20:42:50.469Z,88.90
2017-10-07T20:45:17.668Z,89.60
2017-10-07T20:47:44.101Z,89.70
2017-10-07T20:50:10.453Z,89.60
2017-10-07T20:52:36.923Z,90.00
2017-10-07T20:55:04.094Z,90.40
2017-10-07T20:57:30.486Z,90.40
2017-10-07T20:59:56.993Z,90.50
2017-10-07T21:02:23.380Z,90.70
2017-10-07T21:04:49.753Z,90.90
2017-10-07T21:07:16.169Z,91.20
2017-10-07T21:09:42.563Z,91.30
2017-10-07T21:12:09.623Z,92.00
2017-10-07T21:14:36.861Z,92.90
2017-10-07T21:17:03.957Z,93.70
2017-10-07T21:19:30.272Z,93.70
2017-10-07T21:21:56.639Z,94.90
2017-10-07T21:24:23.593Z,95.90
2017-10-07T21:26:49.951Z,96.70
2017-10-07T21:29:17.118Z,98.20
2017-10-07T21:31:43.729Z,98.20
2017-10-07T21:34:10.809Z,99.20
2017-10-07T21:36:37.168Z,99.20
2017-10-07T21:39:03.526Z,99.40
2017-10-07T21:41:29.888Z,99.10
2017-10-07T21:43:56.993Z,99.70
2017-10-07T21:46:26.324Z,99.70
2017-10-07T21:48:53.424Z,99.20
2017-10-07T21:51:19.808Z,99.20
2017-10-07T21:53:46.919Z,98.70
2017-10-07T21:56:13.265Z,98.70
2017-10-07T21:58:39.650Z,98.00
2017-10-07T22:01:06.054Z,98.10
2017-10-07T22:03:33.125Z,98.00
2017-10-07T22:05:59.723Z,98.00
2017-10-07T22:08:26.833Z,97.90
2017-10-07T22:10:53.214Z,97.50
2017-10-07T22:13:20.306Z,97.00
2017-10-07T22:15:46.677Z,97.30
2017-10-07T22:18:13.016Z,96.60
2017-10-07T22:20:40.122Z,96.50
2017-10-07T22:23:06.457Z,96.40
2017-10-07T22:25:32.820Z,96.80
2017-10-07T22:27:59.161Z,97.10
2017-10-07T22:30:26.986Z,97.00
2017-10-07T22:32:53.473Z,97.00
2017-10-07T22:35:20.583Z,97.20
2017-10-07T22:37:48.467Z,97.00
2017-10-07T22:40:14.831Z,97.00
2017-10-07T22:42:41.195Z,97.20
2017-10-07T22:45:07.541Z,96.40
2017-10-07T22:47:33.971Z,96.50
2017-10-07T22:50:00.336Z,96.70
2017-10-07T22:52:27.483Z,96.30
2017-10-07T22:54:54.744Z,96.50
2017-10-07T22:57:21.948Z,96.70
2017-10-07T22:59:48.372Z,96.60
2017-10-07T23:02:14.757Z,96.80
2017-10-07T23:04:41.108Z,96.70
2017-10-07T23:07:07.480Z,96.20
2017-10-07T23:09:33.892Z,95.40
2017-10-07T23:12:00.355Z,95.90
2017-10-07T23:14:26.684Z,96.00
2017-10-07T23:16:53.209Z,96.30
2017-10-07T23:19:20.399Z,96.30
2017-10-07T23:21:47.697Z,96.50
2017-10-07T23:24:14.083Z,96.40
2017-10-07T23:26:41.258Z,97.20
2017-10-07T23:29:07.653Z,97.10
2017-10-07T23:31:34.040Z,97.60
2017-10-07T23:34:00.715Z,98.30
2017-10-07T23:36:27.099Z,98.50
2017-10-07T23:38:53.491Z,99.00
2017-10-07T23:41:19.843Z,99.40
2017-10-07T23:43:46.268Z,99.90
2017-10-07T23:46:13.384Z,99.90
2017-10-07T23:48:40.502Z,99.90
2017-10-07T23:51:06.916Z,99.90
2017-10-07T23:53:33.253Z,99.90
2017-10-07T23:55:59.548Z,99.90
2017-10-07T23:58:26.649Z,99.90
